Time;durP1;ratioP1;P1;durP2;ratioP2;P2;SDS_P1;SDS_P2;PMS_P1;PMS_P2;Temp;Humidity;BMP_temperature;BMP_pressure;BME280_temperature;BME280_humidity;BME280_pressure;Samples;Min_cycle;Max_cycle;Signal;HPM_P1;HPM_P2
2022/11/12 00:00:15;;;;;;;1.10;1.10;;;17.00;69.80;;;;;;4996776;28;20038;-39
2022/11/12 00:02:41;;;;;;;1.10;1.10;;;17.00;69.80;;;;;;5001351;28;20521;-42
2022/11/12 00:05:07;;;;;;;1.15;1.15;;;17.00;69.80;;;;;;4993958;28;20042;-38
2022/11/12 00:07:32;;;;;;;1.40;1.40;;;17.00;69.80;;;;;;5007051;28;20524;-36
2022/11/12 00:09:58;;;;;;;1.42;1.38;;;17.00;69.80;;;;;;5012478;28;20540;-40
2022/11/12 00:12:23;;;;;;;1.33;1.33;;;17.00;69.80;;;;;;5008548;28;20054;-36
2022/11/12 00:14:49;;;;;;;1.30;1.30;;;17.00;69.80;;;;;;4999080;28;20042;-39
2022/11/12 00:17:15;;;;;;;1.40;1.40;;;17.00;69.80;;;;;;4999936;28;20593;-38
2022/11/12 00:19:40;;;;;;;1.58;1.50;;;17.00;69.80;;;;;;5011859;28;20064;-41
2022/11/12 00:22:06;;;;;;;1.30;1.30;;;17.00;69.80;;;;;;5002786;28;20119;-41
2022/11/12 00:24:31;;;;;;;1.23;1.23;;;17.00;69.80;;;;;;5002863;28;20073;-38
2022/11/12 00:26:57;;;;;;;1.73;1.63;;;17.00;69.80;;;;;;4991911;28;20042;-38
2022/11/12 00:29:22;;;;;;;1.60;1.50;;;17.00;69.80;;;;;;5005415;28;20482;-38
2022/11/12 00:31:48;;;;;;;1.75;1.65;;;17.00;69.80;;;;;;5006892;28;20049;-39
2022/11/12 00:34:13;;;;;;;1.25;1.25;;;17.00;69.80;;;;;;5011712;28;20507;-39
2022/11/12 00:36:39;;;;;;;1.27;1.27;;;17.00;69.80;;;;;;5008906;28;20045;-40
2022/11/12 00:39:05;;;;;;;1.42;1.42;;;17.00;69.80;;;;;;5014765;28;20042;-45
2022/11/12 00:41:30;;;;;;;1.77;1.67;;;16.90;69.70;;;;;;5014845;28;20045;-39
2022/11/12 00:43:56;;;;;;;1.35;1.35;;;17.00;70.50;;;;;;5011885;28;20050;-37
2022/11/12 00:46:21;;;;;;;1.50;1.40;;;17.00;69.70;;;;;;5009144;28;20114;-39
2022/11/12 00:48:47;;;;;;;1.45;1.35;;;17.00;69.70;;;;;;5000649;28;20123;-37
2022/11/12 00:51:12;;;;;;;1.10;1.10;;;17.00;69.80;;;;;;4993753;28;20414;-39
2022/11/12 00:53:38;;;;;;;1.40;1.40;;;17.00;69.80;;;;;;5011546;28;20050;-37
2022/11/12 00:56:05;;;;;;;0.95;0.95;;;17.00;69.80;;;;;;5008464;28;20050;-42
2022/11/12 00:58:31;;;;;;;1.52;1.50;;;17.00;69.70;;;;;;5000773;28;20457;-36
2022/11/12 01:00:57;;;;;;;1.67;1.58;;;17.00;69.70;;;;;;5001932;28;20045;-38
2022/11/12 01:03:22;;;;;;;1.30;1.30;;;17.00;69.70;;;;;;5000743;28;20125;-39
2022/11/12 01:05:48;;;;;;;1.30;1.20;;;17.00;69.60;;;;;;5009427;28;20092;-36
2022/11/12 01:08:14;;;;;;;1.50;1.40;;;17.00;69.50;;;;;;5007867;28;20042;-36
2022/11/12 01:10:39;;;;;;;1.63;1.52;;;17.00;69.70;;;;;;5002931;28;20081;-36
2022/11/12 01:13:05;;;;;;;1.42;1.33;;;17.00;69.60;;;;;;5004442;28;20050;-39
2022/11/12 01:15:30;;;;;;;1.10;1.10;;;17.00;69.80;;;;;;5007490;28;20164;-38
2022/11/12 01:17:56;;;;;;;1.15;1.15;;;17.00;69.70;;;;;;5000686;28;20122;-39
2022/11/12 01:20:21;;;;;;;1.30;1.30;;;17.00;69.60;;;;;;4995331;28;20042;-36
2022/11/12 01:22:47;;;;;;;1.00;1.00;;;17.00;69.60;;;;;;5001878;28;20033;-27
2022/11/12 01:25:12;;;;;;;1.20;1.20;;;17.00;69.70;;;;;;5012797;28;20054;-38
2022/11/12 01:27:38;;;;;;;0.95;0.95;;;17.00;69.60;;;;;;5013396;28;20050;-41
2022/11/12 01:30:04;;;;;;;1.15;1.15;;;17.00;69.60;;;;;;5012936;28;20513;-40
2022/11/12 01:32:33;;;;;;;1.15;1.15;;;17.00;69.50;;;;;;5004252;28;20088;-38
2022/11/12 01:34:59;;;;;;;1.08;1.08;;;17.00;69.60;;;;;;4992973;28;20053;-36
2022/11/12 01:37:24;;;;;;;1.40;1.30;;;17.00;69.70;;;;;;4994390;28;20034;-37
2022/11/12 01:39:50;;;;;;;1.30;1.20;;;17.00;69.60;;;;;;4993617;28;20112;-36
2022/11/12 01:42:15;;;;;;;2.30;1.30;;;17.00;70.40;;;;;;5001587;28;20077;-39
2022/11/12 01:44:42;;;;;;;1.17;1.17;;;17.00;69.60;;;;;;5014817;28;20512;-34
2022/11/12 01:47:20;;;;;;;1.10;1.10;;;16.90;69.60;;;;;;5026189;28;20223;-34
2022/11/12 01:49:52;;;;;;;1.45;1.45;;;17.00;69.70;;;;;;5016757;28;20587;-39
2022/11/12 01:52:29;;;;;;;1.20;1.20;;;17.00;69.80;;;;;;5008719;28;20042;-39
2022/11/12 01:54:57;;;;;;;1.05;1.05;;;17.00;69.60;;;;;;5012066;28;20152;-38
2022/11/12 01:57:25;;;;;;;1.08;1.08;;;16.90;69.60;;;;;;5023674;28;20121;-42
2022/11/12 01:59:53;;;;;;;1.70;1.60;;;16.90;69.60;;;;;;4994154;28;20613;-36
2022/11/12 02:02:19;;;;;;;1.20;1.20;;;16.90;69.60;;;;;;4994458;28;20041;-35
2022/11/12 02:04:45;;;;;;;0.88;0.88;;;17.00;69.70;;;;;;4995005;28;20097;-38
2022/11/12 02:07:10;;;;;;;1.00;1.00;;;16.90;69.60;;;;;;4989552;28;20595;-36
2022/11/12 02:09:36;;;;;;;1.00;1.00;;;17.00;69.60;;;;;;4995870;28;20109;-35
2022/11/12 02:12:01;;;;;;;1.33;1.23;;;17.00;69.60;;;;;;4993738;28;20046;-36
2022/11/12 02:14:27;;;;;;;1.10;1.10;;;17.00;69.60;;;;;;4992313;28;20378;-35
2022/11/12 02:16:53;;;;;;;1.00;1.00;;;17.00;70.40;;;;;;5004279;28;20061;-38
2022/11/12 02:19:18;;;;;;;1.10;1.10;;;17.00;69.60;;;;;;4995835;28;20045;-38
2022/11/12 02:21:44;;;;;;;1.23;1.13;;;17.00;70.30;;;;;;5008560;28;20120;-38
2022/11/12 02:24:12;;;;;;;0.90;0.90;;;17.00;69.50;;;;;;5014993;28;20415;-37
2022/11/12 02:26:40;;;;;;;1.05;1.00;;;17.00;69.60;;;;;;4997727;28;20760;-38
2022/11/12 02:29:06;;;;;;;1.00;1.00;;;17.00;69.50;;;;;;4996260;28;20132;-37
2022/11/12 02:31:32;;;;;;;0.90;0.90;;;16.90;69.50;;;;;;4992429;28;20047;-38
2022/11/12 02:33:57;;;;;;;1.25;1.20;;;16.90;69.50;;;;;;4991601;28;20482;-37
2022/11/12 02:36:23;;;;;;;1.27;1.10;;;16.90;69.60;;;;;;4994584;28;20053;-36
2022/11/12 02:38:48;;;;;;;0.80;0.80;;;16.90;69.60;;;;;;4992593;28;20082;-38
2022/11/12 02:41:14;;;;;;;0.82;0.73;;;16.90;69.50;;;;;;4993768;28;20132;-38
2022/11/12 02:43:40;;;;;;;1.15;1.15;;;17.00;70.40;;;;;;4991901;28;20152;-37
2022/11/12 02:46:05;;;;;;;0.90;0.90;;;16.90;70.30;;;;;;4995491;28;20054;-39
2022/11/12 02:48:31;;;;;;;1.00;1.00;;;16.90;69.40;;;;;;4995561;28;20474;-39
2022/11/12 02:50:57;;;;;;;0.90;0.90;;;16.90;69.50;;;;;;4993514;28;20136;-36
2022/11/12 02:53:22;;;;;;;0.80;0.80;;;16.90;69.50;;;;;;4992609;28;20085;-37
2022/11/12 02:55:48;;;;;;;0.98;0.98;;;16.90;69.50;;;;;;4993458;28;20418;-36
2022/11/12 02:58:14;;;;;;;1.00;1.00;;;16.90;69.50;;;;;;4993910;28;20463;-36
2022/11/12 03:00:40;;;;;;;0.90;0.90;;;16.90;69.50;;;;;;4991359;28;20034;-36
2022/11/12 03:03:05;;;;;;;0.98;0.98;;;16.90;69.40;;;;;;5009237;28;20034;-38
2022/11/12 03:05:32;;;;;;;0.98;0.98;;;16.90;69.50;;;;;;5009887;28;20073;-38
2022/11/12 03:08:02;;;;;;;0.90;0.90;;;16.90;69.60;;;;;;5003770;28;20073;-39
2022/11/12 03:10:28;;;;;;;1.10;1.10;;;16.90;69.60;;;;;;5009956;28;20046;-38
2022/11/12 03:12:56;;;;;;;0.95;0.95;;;16.90;69.60;;;;;;5009495;28;20100;-37
2022/11/12 03:15:21;;;;;;;1.00;1.00;;;16.90;69.50;;;;;;5017287;28;20049;-38
2022/11/12 03:17:47;;;;;;;0.88;0.88;;;16.90;69.40;;;;;;5012160;28;20026;-37
2022/11/12 03:20:13;;;;;;;1.08;1.08;;;16.90;69.50;;;;;;5005943;28;20505;-36
2022/11/12 03:22:38;;;;;;;0.93;0.93;;;16.90;69.50;;;;;;5006388;28;20041;-39
2022/11/12 03:25:04;;;;;;;0.80;0.80;;;16.90;69.50;;;;;;4996745;28;20070;-36
2022/11/12 03:27:30;;;;;;;1.02;1.02;;;16.90;69.50;;;;;;4992995;28;20776;-37
2022/11/12 03:29:56;;;;;;;1.05;1.05;;;17.00;69.40;;;;;;4992914;28;20088;-37
2022/11/12 03:32:21;;;;;;;1.48;1.00;;;17.00;69.50;;;;;;4993640;28;20130;-39
2022/11/12 03:34:47;;;;;;;0.85;0.85;;;17.00;69.60;;;;;;4992087;28;20042;-39
2022/11/12 03:37:12;;;;;;;0.82;0.82;;;16.90;69.40;;;;;;5009727;28;20505;-38
2022/11/12 03:39:38;;;;;;;1.13;1.13;;;16.90;69.50;;;;;;5008077;28;20096;-37
2022/11/12 03:42:04;;;;;;;0.80;0.80;;;16.90;69.40;;;;;;4992910;28;20049;-38
2022/11/12 03:44:29;;;;;;;0.98;0.95;;;16.90;69.50;;;;;;5006724;28;20037;-38
2022/11/12 03:46:55;;;;;;;0.90;0.90;;;16.90;69.50;;;;;;4993800;28;20399;-38
2022/11/12 03:49:20;;;;;;;0.85;0.85;;;16.90;69.40;;;;;;5005065;28;20040;-41
2022/11/12 03:51:46;;;;;;;1.13;1.13;;;16.90;69.40;;;;;;5011153;28;20402;-38
2022/11/12 03:54:12;;;;;;;0.98;0.98;;;16.90;69.60;;;;;;5011405;28;20037;-39
2022/11/12 03:56:37;;;;;;;0.98;0.98;;;16.90;69.60;;;;;;5007993;28;20037;-36
2022/11/12 03:59:03;;;;;;;0.90;0.90;;;16.90;69.50;;;;;;5011717;28;20038;-35
2022/11/12 04:01:29;;;;;;;0.70;0.70;;;16.90;69.50;;;;;;5008231;28;20038;-38
2022/11/12 04:03:54;;;;;;;0.82;0.82;;;16.90;70.30;;;;;;5009907;28;20048;-39
2022/11/12 04:09:04;;;;;;;0.90;0.90;;;16.90;69.60;;;;;;5007293;28;20104;-38
2022/11/12 04:11:30;;;;;;;0.90;0.90;;;16.90;69.50;;;;;;5007422;28;20038;-38
2022/11/12 04:13:55;;;;;;;1.08;1.08;;;16.90;69.60;;;;;;5002499;28;20492;-38
2022/11/12 04:22:09;;;;;;;0.90;0.90;;;16.90;69.50;;;;;;5011291;28;20037;-38
2022/11/12 04:27:28;;;;;;;0.90;0.90;;;16.90;69.50;;;;;;5006211;28;20047;-38
2022/11/12 04:32:49;;;;;;;1.17;1.17;;;16.90;69.60;;;;;;5012620;28;20037;-38
2022/11/12 04:35:15;;;;;;;1.10;1.10;;;16.90;69.50;;;;;;4996370;28;20587;-37
2022/11/12 04:37:43;;;;;;;1.10;1.10;;;16.90;69.50;;;;;;4993306;28;20126;-37
2022/11/12 04:45:46;;;;;;;1.02;0.93;;;16.90;69.60;;;;;;5013388;28;20517;-37
2022/11/12 04:48:12;;;;;;;1.30;1.20;;;16.90;69.60;;;;;;5010978;28;20058;-37
2022/11/12 04:50:38;;;;;;;0.82;0.82;;;16.80;69.50;;;;;;5008386;28;20133;-39
2022/11/12 04:53:03;;;;;;;1.00;1.00;;;16.90;69.70;;;;;;5003260;28;20073;-39
2022/11/12 04:55:29;;;;;;;1.10;1.10;;;16.80;69.60;;;;;;5004358;28;20128;-39
2022/11/12 04:57:55;;;;;;;1.02;1.02;;;16.90;69.60;;;;;;5015404;28;20072;-36
2022/11/12 05:00:20;;;;;;;1.10;1.10;;;16.80;69.60;;;;;;5013183;28;20050;-38
2022/11/12 05:02:47;;;;;;;1.00;1.00;;;16.90;69.60;;;;;;5007800;28;20033;-38
2022/11/12 05:05:13;;;;;;;0.90;0.90;;;16.80;70.30;;;;;;4998025;28;20041;-40
2022/11/12 05:07:39;;;;;;;0.98;0.95;;;16.90;69.60;;;;;;5010014;28;20044;-36
2022/11/12 05:10:04;;;;;;;0.70;0.70;;;16.90;69.60;;;;;;4998270;28;20035;-36
2022/11/12 05:12:30;;;;;;;0.90;0.90;;;16.90;69.50;;;;;;4996440;28;20046;-37
2022/11/12 05:14:56;;;;;;;1.08;1.08;;;16.80;69.40;;;;;;5011088;28;20475;-42
2022/11/12 05:17:21;;;;;;;1.00;1.00;;;16.90;69.60;;;;;;5013992;28;20062;-39
2022/11/12 05:19:47;;;;;;;0.85;0.85;;;16.90;69.50;;;;;;5012537;28;20041;-36
2022/11/12 05:22:12;;;;;;;0.93;0.93;;;16.80;69.50;;;;;;5011909;28;20143;-41
2022/11/12 05:24:39;;;;;;;0.85;0.85;;;16.90;69.60;;;;;;5003494;28;20046;-37
2022/11/12 05:27:13;;;;;;;0.98;0.98;;;16.80;69.50;;;;;;5004986;28;20068;-35
2022/11/12 05:29:39;;;;;;;0.93;0.93;;;16.90;69.60;;;;;;5009451;28;20034;-40
2022/11/12 05:32:05;;;;;;;1.00;1.00;;;16.80;69.50;;;;;;5010604;28;20461;-38
2022/11/12 05:34:31;;;;;;;0.85;0.85;;;16.80;69.60;;;;;;5014058;28;20048;-34
2022/11/12 05:36:56;;;;;;;1.10;1.10;;;16.80;69.60;;;;;;5011904;28;20038;-36
2022/11/12 05:39:22;;;;;;;1.00;1.00;;;16.80;69.50;;;;;;5014245;28;20375;-41
2022/11/12 05:41:48;;;;;;;0.90;0.90;;;16.80;69.50;;;;;;5011932;28;20134;-37
2022/11/12 05:44:13;;;;;;;1.88;0.93;;;16.90;69.60;;;;;;5014844;28;20498;-37
2022/11/12 05:46:39;;;;;;;0.98;0.98;;;16.90;69.50;;;;;;5003209;28;20136;-37
2022/11/12 05:49:04;;;;;;;1.00;1.00;;;16.80;69.40;;;;;;5005837;28;20045;-36
2022/11/12 05:51:30;;;;;;;1.20;1.20;;;16.80;69.50;;;;;;5007956;28;20538;-42
2022/11/12 05:53:56;;;;;;;1.00;1.00;;;16.80;69.50;;;;;;5017672;28;20034;-38
2022/11/12 05:56:21;;;;;;;0.90;0.90;;;16.80;69.50;;;;;;5013198;28;20069;-39
2022/11/12 05:58:47;;;;;;;0.80;0.80;;;16.90;69.60;;;;;;5012187;28;20048;-38
2022/11/12 06:01:12;;;;;;;0.90;0.90;;;16.80;69.60;;;;;;5011993;28;20042;-39
2022/11/12 06:03:38;;;;;;;0.80;0.80;;;16.80;69.60;;;;;;5016303;28;20524;-38
2022/11/12 06:06:04;;;;;;;0.60;0.60;;;16.80;69.60;;;;;;5010823;28;20132;-19
2022/11/12 06:08:29;;;;;;;0.73;0.73;;;16.80;69.50;;;;;;5003206;28;20038;-37
2022/11/12 06:10:55;;;;;;;1.00;1.00;;;16.80;69.60;;;;;;4996235;28;20041;-34
2022/11/12 06:13:22;;;;;;;0.98;0.98;;;16.80;70.30;;;;;;4995987;28;20045;-40
2022/11/12 06:15:47;;;;;;;1.05;1.05;;;16.80;69.40;;;;;;4976274;28;20050;-37
2022/11/12 06:18:13;;;;;;;1.10;1.10;;;16.80;69.50;;;;;;4992432;28;20050;-38
2022/11/12 06:20:39;;;;;;;0.90;0.90;;;16.80;69.50;;;;;;5007725;28;20132;-33
2022/11/12 06:23:04;;;;;;;0.70;0.70;;;16.80;69.40;;;;;;5010353;28;20564;-37
2022/11/12 06:25:30;;;;;;;0.95;0.95;;;16.80;69.50;;;;;;5001016;28;20066;-36
2022/11/12 06:27:55;;;;;;;1.23;1.13;;;16.80;69.60;;;;;;5006556;28;20077;-38
2022/11/12 06:30:21;;;;;;;1.10;1.10;;;16.80;69.50;;;;;;5009125;28;20041;-38
2022/11/12 06:32:50;;;;;;;1.08;1.08;;;16.80;69.40;;;;;;5000467;28;20053;-36
2022/11/12 06:35:16;;;;;;;1.00;1.00;;;16.80;69.60;;;;;;5005502;28;20050;-39
2022/11/12 06:37:41;;;;;;;1.10;1.10;;;16.80;69.50;;;;;;5005184;28;20066;-36
2022/11/12 06:40:07;;;;;;;0.90;0.90;;;16.80;69.60;;;;;;5001695;28;20592;-39
2022/11/12 06:42:33;;;;;;;0.70;0.70;;;16.80;69.50;;;;;;5008383;28;20050;-18
2022/11/12 06:44:59;;;;;;;0.98;0.98;;;16.80;69.60;;;;;;5001400;28;20049;-18
2022/11/12 06:47:24;;;;;;;1.08;1.08;;;16.80;69.50;;;;;;4993609;28;20134;-17
2022/11/12 06:49:50;;;;;;;0.80;0.80;;;16.80;69.40;;;;;;5000429;28;20061;-18
2022/11/12 06:52:16;;;;;;;0.80;0.80;;;16.80;69.50;;;;;;5016389;28;20046;-18
2022/11/12 06:54:41;;;;;;;0.70;0.70;;;16.80;70.40;;;;;;5013292;28;20050;-18
2022/11/12 06:57:07;;;;;;;0.80;0.80;;;16.80;69.60;;;;;;5010342;28;20052;-16
2022/11/12 06:59:32;;;;;;;0.70;0.70;;;16.80;69.60;;;;;;5015381;28;20445;-18
2022/11/12 07:01:58;;;;;;;0.90;0.90;;;16.80;69.40;;;;;;4998786;28;20648;-18
2022/11/12 07:04:24;;;;;;;0.85;0.85;;;16.80;69.60;;;;;;4997561;28;20049;-17
2022/11/12 07:06:49;;;;;;;0.88;0.88;;;16.80;69.40;;;;;;5006099;28;20092;-18
2022/11/12 07:09:15;;;;;;;0.95;0.95;;;16.80;69.50;;;;;;5006517;28;20092;-17
2022/11/12 07:11:40;;;;;;;0.80;0.80;;;16.80;69.40;;;;;;5009167;28;20029;-19
2022/11/12 07:14:06;;;;;;;0.80;0.80;;;16.80;69.50;;;;;;5008252;28;20038;-18
2022/11/12 07:16:32;;;;;;;0.73;0.73;;;16.80;70.30;;;;;;4997854;28;20414;-18
2022/11/12 07:18:58;;;;;;;0.77;0.77;;;16.80;69.60;;;;;;5003423;28;20116;-18
2022/11/12 07:21:23;;;;;;;0.77;0.77;;;16.80;69.60;;;;;;5012104;28;20529;-17
2022/11/12 07:23:49;;;;;;;0.98;0.98;;;16.80;69.50;;;;;;5005353;28;20041;-19
2022/11/12 07:26:16;;;;;;;0.73;0.73;;;16.80;69.70;;;;;;4657887;28;10000132;-18
2022/11/12 07:28:42;;;;;;;0.60;0.60;;;16.80;69.70;;;;;;5013887;28;20370;-18
2022/11/12 07:31:09;;;;;;;0.60;0.60;;;16.80;69.70;;;;;;5016789;28;20041;-18
2022/11/12 07:33:35;;;;;;;0.60;0.60;;;16.80;70.50;;;;;;5001067;28;20554;-18
2022/11/12 07:36:01;;;;;;;0.80;0.80;;;16.80;69.70;;;;;;4997693;28;20054;-18
2022/11/12 07:38:28;;;;;;;0.70;0.70;;;16.80;69.80;;;;;;5009123;28;20070;-24
2022/11/12 07:41:03;;;;;;;0.90;0.90;;;16.80;69.90;;;;;;5002549;28;20050;-24
2022/11/12 07:43:29;;;;;;;1.90;0.70;;;16.80;69.80;;;;;;5003577;28;20118;-18
2022/11/12 07:46:05;;;;;;;0.70;0.70;;;16.80;69.90;;;;;;5001002;28;20080;-18
2022/11/12 07:48:31;;;;;;;0.60;0.60;;;16.80;69.90;;;;;;5011521;28;20583;-18
2022/11/12 07:51:04;;;;;;;1.00;1.00;;;16.80;70.70;;;;;;5013239;28;20053;-18
2022/11/12 07:53:29;;;;;;;0.90;0.90;;;16.80;69.80;;;;;;5015462;28;20046;-18
2022/11/12 07:55:56;;;;;;;0.80;0.80;;;16.90;69.90;;;;;;5008850;28;20064;-18
2022/11/12 07:58:22;;;;;;;0.80;0.80;;;16.90;69.90;;;;;;4999714;28;20038;-18
2022/11/12 08:00:48;;;;;;;0.82;0.82;;;16.90;70.00;;;;;;4997854;28;20050;-18
2022/11/12 08:03:13;;;;;;;1.10;1.10;;;16.80;70.00;;;;;;5004808;28;20045;-18
2022/11/12 08:05:39;;;;;;;0.80;0.80;;;16.90;70.00;;;;;;5011248;28;20708;-18
2022/11/12 08:08:04;;;;;;;0.80;0.80;;;16.90;70.00;;;;;;5005534;28;20059;-18
2022/11/12 08:10:30;;;;;;;0.60;0.60;;;16.90;70.00;;;;;;5006340;28;20041;-21
2022/11/12 08:12:55;;;;;;;1.50;0.85;;;16.90;70.10;;;;;;5014698;28;20370;-18
2022/11/12 08:15:21;;;;;;;0.90;0.90;;;16.90;70.10;;;;;;4999833;28;20050;-18
2022/11/12 08:17:47;;;;;;;0.93;0.93;;;16.90;70.00;;;;;;5008658;28;20533;-18
2022/11/12 08:20:12;;;;;;;0.82;0.82;;;16.90;70.20;;;;;;5001684;28;22177;-15
2022/11/12 08:22:38;;;;;;;1.00;1.00;;;16.90;70.90;;;;;;5006072;28;20049;-18
2022/11/12 08:25:04;;;;;;;0.60;0.60;;;16.90;70.10;;;;;;5001114;28;20658;-27
2022/11/12 08:27:30;;;;;;;0.70;0.70;;;16.90;70.10;;;;;;4986286;28;20099;-18
2022/11/12 08:29:55;;;;;;;0.80;0.80;;;16.90;70.10;;;;;;5001560;28;20049;-18
2022/11/12 08:32:21;;;;;;;0.60;0.60;;;16.90;70.10;;;;;;5008356;28;20033;-17
2022/11/12 08:34:46;;;;;;;0.88;0.88;;;16.90;70.20;;;;;;5011887;28;20052;-18
2022/11/12 08:37:12;;;;;;;0.70;0.70;;;16.90;70.30;;;;;;5020064;28;20046;-18
2022/11/12 08:39:37;;;;;;;0.70;0.70;;;16.90;70.10;;;;;;5003085;28;20403;-19
2022/11/12 08:42:03;;;;;;;0.90;0.90;;;16.90;70.00;;;;;;5004202;28;20484;-17
2022/11/12 08:44:29;;;;;;;0.70;0.70;;;17.00;70.00;;;;;;5005318;28;20046;-18
2022/11/12 08:46:55;;;;;;;0.77;0.77;;;17.00;70.10;;;;;;5009563;28;20047;-18
2022/11/12 08:49:20;;;;;;;0.80;0.80;;;17.00;69.90;;;;;;5014738;28;20498;-18
2022/11/12 08:51:46;;;;;;;0.88;0.88;;;17.00;69.80;;;;;;5018311;28;20071;-18
2022/11/12 08:54:11;;;;;;;0.90;0.90;;;17.00;70.70;;;;;;5010167;28;20054;-18
2022/11/12 08:56:38;;;;;;;0.88;0.88;;;17.00;69.80;;;;;;4987497;28;20054;-19
2022/11/12 08:59:04;;;;;;;0.90;0.90;;;17.00;69.60;;;;;;5011050;28;20042;-29
2022/11/12 09:01:29;;;;;;;1.45;0.73;;;17.00;69.70;;;;;;5010356;28;20430;-23
2022/11/12 09:03:55;;;;;;;0.80;0.80;;;17.00;69.70;;;;;;5015597;28;20076;-18
2022/11/12 09:06:21;;;;;;;0.60;0.60;;;17.00;70.40;;;;;;5015506;28;20478;-18
2022/11/12 09:08:46;;;;;;;0.80;0.80;;;17.00;70.50;;;;;;5012763;28;20045;-18
2022/11/12 09:11:12;;;;;;;0.73;0.70;;;17.00;69.60;;;;;;5014644;28;20417;-22
2022/11/12 09:13:37;;;;;;;0.60;0.50;;;17.00;69.70;;;;;;5015686;28;20124;-18
2022/11/12 09:16:04;;;;;;;0.68;0.68;;;17.00;69.70;;;;;;5008714;28;20041;-18
2022/11/12 09:18:30;;;;;;;0.88;0.88;;;17.00;69.70;;;;;;5007029;28;20042;-18
2022/11/12 09:21:03;;;;;;;0.82;0.82;;;17.10;69.40;;;;;;5013300;28;20052;-22
2022/11/12 09:23:29;;;;;;;1.73;0.90;;;17.20;69.50;;;;;;5012611;28;20413;-18
2022/11/12 09:25:56;;;;;;;1.13;0.90;;;17.50;68.60;;;;;;5014661;28;20546;-18
2022/11/12 09:28:22;;;;;;;0.73;0.60;;;17.50;67.80;;;;;;5014098;28;20057;-18
2022/11/12 09:30:49;;;;;;;0.60;0.52;;;17.60;67.80;;;;;;5011028;28;20038;-23
2022/11/12 09:33:18;;;;;;;0.70;0.70;;;17.70;68.30;;;;;;5020501;28;20030;-21
2022/11/12 09:35:44;;;;;;;0.93;0.93;;;17.80;67.30;;;;;;5001592;28;20046;-20
2022/11/12 09:38:10;;;;;;;0.80;0.80;;;17.80;67.30;;;;;;5010003;28;20054;-26
2022/11/12 09:40:49;;;;;;;0.70;0.70;;;17.80;67.20;;;;;;5011751;28;20041;-18
2022/11/12 09:43:45;;;;;;;0.70;0.70;;;17.80;66.90;;;;;;5008751;28;20108;-23
2022/11/12 09:46:17;;;;;;;1.27;0.93;;;17.80;67.30;;;;;;4990771;28;20045;-18
2022/11/12 09:48:48;;;;;;;0.65;0.65;;;17.80;67.10;;;;;;5025632;28;20072;-18
2022/11/12 09:51:33;;;;;;;0.70;0.70;;;17.80;67.30;;;;;;5033120;28;20264;-18
2022/11/12 09:54:12;;;;;;;0.90;0.90;;;17.80;67.30;;;;;;5009300;28;20410;-18
2022/11/12 09:56:37;;;;;;;0.90;0.90;;;17.90;67.00;;;;;;5017063;28;20049;-18
2022/11/12 09:59:10;;;;;;;0.70;0.70;;;18.00;66.80;;;;;;5003814;28;20381;-18
2022/11/12 10:01:58;;;;;;;0.70;0.70;;;18.00;66.90;;;;;;5010810;28;20030;-18
2022/11/12 10:04:39;;;;;;;0.65;0.60;;;17.90;67.20;;;;;;5002181;28;20072;-18
2022/11/12 10:07:28;;;;;;;0.68;0.68;;;18.00;66.90;;;;;;4995550;28;20045;-18
2022/11/12 10:10:24;;;;;;;0.60;0.60;;;17.90;66.90;;;;;;5000527;28;20051;-18
2022/11/12 10:12:59;;;;;;;0.70;0.70;;;18.00;67.10;;;;;;5005664;28;20046;-18
2022/11/12 10:18:38;;;;;;;0.65;0.65;;;17.90;67.30;;;;;;5013465;28;20081;-17
2022/11/12 10:21:10;;;;;;;0.77;0.77;;;17.90;67.30;;;;;;5000182;28;20507;-18
2022/11/12 10:23:44;;;;;;;0.80;0.80;;;17.90;67.40;;;;;;5007084;28;20070;-18
2022/11/12 10:26:12;;;;;;;1.55;0.80;;;17.90;67.40;;;;;;4994689;28;20074;-18
2022/11/12 10:28:42;;;;;;;0.70;0.70;;;17.90;67.70;;;;;;5011995;28;20121;-18
2022/11/12 10:31:12;;;;;;;0.70;0.70;;;17.80;67.50;;;;;;5004354;28;20065;-18
2022/11/12 10:33:38;;;;;;;0.90;0.90;;;17.90;67.50;;;;;;5004185;28;20042;-18
2022/11/12 10:36:33;;;;;;;0.80;0.80;;;17.90;67.50;;;;;;5002814;28;20065;-18
2022/11/12 10:38:58;;;;;;;0.63;0.63;;;18.00;67.20;;;;;;4992974;28;20050;-18
2022/11/12 10:41:31;;;;;;;0.75;0.75;;;17.90;67.30;;;;;;5009645;28;20050;-16
2022/11/12 10:44:04;;;;;;;0.68;0.68;;;17.80;67.50;;;;;;5011262;28;20498;-18
2022/11/12 10:46:30;;;;;;;0.57;0.57;;;17.80;67.80;;;;;;5007298;28;20099;-18
2022/11/12 10:49:15;;;;;;;0.60;0.60;;;17.80;67.60;;;;;;4992342;28;20049;-17
2022/11/12 10:51:40;;;;;;;;;;;17.80;67.80;;;;;;4994470;28;20121;-18
2022/11/12 10:54:26;;;;;;;0.80;0.80;;;17.80;67.80;;;;;;5010458;28;20059;-17
2022/11/12 10:56:52;;;;;;;0.80;0.80;;;17.80;67.90;;;;;;5006662;28;20521;-21
2022/11/12 10:59:19;;;;;;;0.70;0.70;;;17.80;67.90;;;;;;5009429;28;20042;-18
2022/11/12 11:01:45;;;;;;;0.70;0.70;;;17.70;68.80;;;;;;5009833;28;20045;-18
2022/11/12 11:04:31;;;;;;;0.80;0.80;;;17.70;68.00;;;;;;5001451;28;20042;-17
2022/11/12 11:07:21;;;;;;;0.80;0.80;;;17.80;68.10;;;;;;5007683;28;20031;-18
2022/11/12 11:09:54;;;;;;;0.63;0.63;;;17.80;68.10;;;;;;4996101;28;20406;-19
2022/11/12 11:12:30;;;;;;;0.70;0.70;;;17.80;68.10;;;;;;4991084;28;20046;-19
2022/11/12 11:15:14;;;;;;;0.60;0.60;;;17.80;68.00;;;;;;4993660;28;20121;-18
2022/11/12 11:17:40;;;;;;;0.70;0.70;;;17.90;67.80;;;;;;4991033;28;20121;-18
2022/11/12 11:20:22;;;;;;;1.20;0.85;;;17.90;67.90;;;;;;4995856;28;20747;-18
2022/11/12 11:23:01;;;;;;;0.77;0.77;;;17.80;68.00;;;;;;4991091;28;20053;-19
2022/11/12 11:25:27;;;;;;;0.90;0.90;;;17.90;68.10;;;;;;4985802;28;20054;-16
2022/11/12 11:28:12;;;;;;;0.77;0.77;;;17.90;68.20;;;;;;4647295;28;9999711;-18
2022/11/12 11:30:40;;;;;;;0.60;0.60;;;17.90;68.30;;;;;;4991298;28;20046;-18
2022/11/12 11:33:11;;;;;;;0.98;0.98;;;17.90;68.80;;;;;;4985358;28;20046;-18
2022/11/12 11:35:57;;;;;;;0.70;0.70;;;17.90;68.50;;;;;;4986694;28;20507;-17
2022/11/12 11:38:50;;;;;;;2.10;0.70;;;17.90;68.60;;;;;;5000168;28;20396;-18
2022/11/12 11:41:44;;;;;;;1.08;1.08;;;17.90;68.80;;;;;;5001194;28;20518;-18
2022/11/12 11:44:28;;;;;;;1.67;0.77;;;18.00;68.70;;;;;;5007047;28;20149;-17
2022/11/12 11:47:12;;;;;;;1.55;1.40;;;18.00;68.50;;;;;;5012664;28;20400;-18
2022/11/12 11:50:18;;;;;;;1.15;1.15;;;18.00;69.00;;;;;;5005416;28;20064;-18
2022/11/12 11:52:45;;;;;;;0.77;0.77;;;18.00;68.80;;;;;;5009599;28;20533;-18
2022/11/12 11:55:11;;;;;;;1.38;0.90;;;18.00;68.70;;;;;;5010398;28;20065;-18
2022/11/12 11:57:47;;;;;;;0.95;0.90;;;18.00;69.40;;;;;;5014713;28;20502;-17
2022/11/12 12:00:29;;;;;;;0.77;0.70;;;18.10;68.50;;;;;;5002003;28;20399;-18
2022/11/12 12:02:57;;;;;;;1.90;1.17;;;18.10;68.30;;;;;;4989020;28;20050;-18
2022/11/12 12:05:37;;;;;;;1.65;1.00;;;18.10;68.60;;;;;;4994050;28;20042;-17
2022/11/12 12:08:11;;;;;;;0.98;0.98;;;18.10;68.40;;;;;;5000911;28;20102;-18
2022/11/12 12:11:06;;;;;;;0.90;0.90;;;18.10;68.60;;;;;;4985487;28;20052;-18
2022/11/12 12:13:37;;;;;;;0.80;0.80;;;18.10;68.70;;;;;;4996611;28;20589;-16
2022/11/12 12:16:25;;;;;;;0.80;0.80;;;18.00;68.70;;;;;;4993381;28;20105;-18
2022/11/12 12:18:56;;;;;;;1.02;1.00;;;18.00;68.60;;;;;;4998413;28;20049;-18
2022/11/12 12:21:22;;;;;;;0.77;0.77;;;18.10;68.70;;;;;;5026312;28;20049;-17
2022/11/12 12:24:01;;;;;;;0.63;0.63;;;18.10;68.50;;;;;;5010010;28;20049;-18
2022/11/12 12:26:48;;;;;;;0.70;0.70;;;18.10;68.70;;;;;;5025025;28;20042;-16
2022/11/12 12:29:46;;;;;;;0.70;0.70;;;18.10;68.60;;;;;;4999005;28;20033;-18
2022/11/12 12:32:31;;;;;;;1.02;0.80;;;18.10;68.60;;;;;;5010225;28;20052;-18
2022/11/12 12:35:02;;;;;;;0.98;0.80;;;18.10;68.50;;;;;;5001870;28;20099;-17
2022/11/12 12:37:45;;;;;;;0.77;0.77;;;18.10;68.50;;;;;;5010625;28;20045;-17
2022/11/12 12:40:23;;;;;;;0.77;0.73;;;18.10;68.50;;;;;;5011359;28;20050;-24
2022/11/12 12:43:00;;;;;;;0.93;0.93;;;18.10;68.50;;;;;;5004077;28;20132;-18
2022/11/12 12:45:29;;;;;;;0.70;0.70;;;18.10;68.50;;;;;;5012706;28;20052;-17
2022/11/12 12:47:55;;;;;;;0.80;0.80;;;18.20;68.40;;;;;;5003804;28;20054;-18
2022/11/12 12:50:21;;;;;;;0.90;0.90;;;18.20;68.30;;;;;;5008407;28;20045;-19
2022/11/12 12:53:11;;;;;;;0.75;0.75;;;18.20;68.30;;;;;;4998298;28;20494;-18
2022/11/12 12:55:50;;;;;;;0.80;0.80;;;18.20;68.10;;;;;;4994809;28;20050;-18
2022/11/12 12:58:17;;;;;;;0.80;0.80;;;18.20;68.20;;;;;;4990416;28;20046;-17
2022/11/12 13:00:49;;;;;;;0.82;0.82;;;18.20;68.20;;;;;;5014880;28;20041;-18
2022/11/12 13:03:44;;;;;;;0.70;0.70;;;18.20;68.20;;;;;;5008347;28;20038;-17
2022/11/12 13:06:15;;;;;;;0.75;0.75;;;18.20;68.20;;;;;;5009526;28;20042;-27
2022/11/12 13:08:40;;;;;;;0.70;0.70;;;18.20;68.10;;;;;;4984812;28;20030;-18
2022/11/12 13:11:06;;;;;;;1.10;1.00;;;18.20;68.10;;;;;;4998638;28;20045;-17
2022/11/12 13:13:36;;;;;;;0.60;0.60;;;18.20;68.10;;;;;;5005043;28;20021;-18
2022/11/12 13:16:01;;;;;;;1.27;0.93;;;18.20;68.20;;;;;;5012094;28;20096;-18
2022/11/12 13:18:36;;;;;;;0.80;0.80;;;18.20;68.20;;;;;;5014059;28;20569;-17